aviador You're here:

YBRK Decoded Metar

ROCKHAMPTON in AUSTRALIA
Report Time2018-05-20 19:00:00
UTC Time2018-05-20 19:34:36
Flight Rules vfr VFR
Wind210° at 04 kt
W.Decomp.*RWY 22: 3.8 kt HW 1.3 kt LCW
RWY 15: 2.5 kt HW 3.1 kt RCW
W.Rank210° ranks 13
Current wind is below 210° avg. (5.5)
Visibility9999 m
Phenomena:N/A
Clouds:N/A
Expected CloudBase > 1,600 ft AGL from Temp-Dew spread
CeilingNone
Temp12°C (ISA -3)
Dew Point08°C (77% RH)
AAT10.1°C
QNH1020 hPa
Density Alt-390 ft
Elevation46 ft
Report Wrong Elevation
Raw Report
YBRK 201900Z AUTO 21004KT 9999 // NCD 12/08 Q1020=

Extra information for YBRK:More info

Metar Taf Metar & Taf Last 4 Metars F.Rules Stats Wind Profile Meteogram Temp Stats Airport Information Weather charts Add Link Nearby VenuesMetar ALERT Operation Metar Decoded Social comments